sensor_id;sensor_type;location;lat;lon;timestamp;P1;durP1;ratioP1;P2;durP2;ratioP2
21202;SDS011;10759;51.982;9.232;2024-01-25T00:00:42;19.63;;;5.75;;
21202;SDS011;10759;51.982;9.232;2024-01-25T00:03:10;22.67;;;5.95;;
21202;SDS011;10759;51.982;9.232;2024-01-25T00:05:38;21.92;;;6.43;;
21202;SDS011;10759;51.982;9.232;2024-01-25T00:08:06;19.95;;;5.68;;
21202;SDS011;10759;51.982;9.232;2024-01-25T00:10:34;21.08;;;6.30;;
21202;SDS011;10759;51.982;9.232;2024-01-25T00:13:03;23.00;;;6.25;;
21202;SDS011;10759;51.982;9.232;2024-01-25T00:15:31;22.55;;;6.07;;
21202;SDS011;10759;51.982;9.232;2024-01-25T00:17:59;33.97;;;6.43;;
21202;SDS011;10759;51.982;9.232;2024-01-25T00:20:27;19.38;;;5.75;;
21202;SDS011;10759;51.982;9.232;2024-01-25T00:22:55;25.27;;;6.57;;
21202;SDS011;10759;51.982;9.232;2024-01-25T00:25:23;24.75;;;6.10;;
21202;SDS011;10759;51.982;9.232;2024-01-25T00:27:51;19.80;;;5.75;;
21202;SDS011;10759;51.982;9.232;2024-01-25T00:30:21;29.40;;;6.18;;
21202;SDS011;10759;51.982;9.232;2024-01-25T00:32:49;30.17;;;7.13;;
21202;SDS011;10759;51.982;9.232;2024-01-25T00:35:17;28.15;;;6.63;;
21202;SDS011;10759;51.982;9.232;2024-01-25T00:37:45;20.33;;;5.80;;
21202;SDS011;10759;51.982;9.232;2024-01-25T00:40:14;26.30;;;6.13;;
21202;SDS011;10759;51.982;9.232;2024-01-25T00:42:43;24.75;;;7.47;;
21202;SDS011;10759;51.982;9.232;2024-01-25T00:45:16;23.35;;;6.68;;
21202;SDS011;10759;51.982;9.232;2024-01-25T00:47:46;22.60;;;7.50;;
21202;SDS011;10759;51.982;9.232;2024-01-25T00:50:14;28.70;;;6.03;;
21202;SDS011;10759;51.982;9.232;2024-01-25T00:52:46;22.42;;;7.00;;
21202;SDS011;10759;51.982;9.232;2024-01-25T00:55:15;17.37;;;5.60;;
21202;SDS011;10759;51.982;9.232;2024-01-25T00:57:44;22.35;;;7.07;;
21202;SDS011;10759;51.982;9.232;2024-01-25T01:00:13;25.70;;;5.50;;
21202;SDS011;10759;51.982;9.232;2024-01-25T01:02:42;15.68;;;5.38;;
21202;SDS011;10759;51.982;9.232;2024-01-25T01:05:13;22.52;;;6.18;;
21202;SDS011;10759;51.982;9.232;2024-01-25T01:07:43;25.20;;;6.00;;
21202;SDS011;10759;51.982;9.232;2024-01-25T01:10:11;17.15;;;5.20;;
21202;SDS011;10759;51.982;9.232;2024-01-25T01:12:40;31.48;;;7.75;;
21202;SDS011;10759;51.982;9.232;2024-01-25T06:31:01;21.98;;;6.50;;
21202;SDS011;10759;51.982;9.232;2024-01-25T06:33:29;20.63;;;5.55;;
21202;SDS011;10759;51.982;9.232;2024-01-25T06:35:57;15.88;;;4.68;;
21202;SDS011;10759;51.982;9.232;2024-01-25T06:38:25;17.17;;;5.32;;
21202;SDS011;10759;51.982;9.232;2024-01-25T06:40:53;21.92;;;6.70;;
21202;SDS011;10759;51.982;9.232;2024-01-25T06:43:23;20.75;;;6.03;;
21202;SDS011;10759;51.982;9.232;2024-01-25T06:45:51;15.93;;;4.90;;
21202;SDS011;10759;51.982;9.232;2024-01-25T06:48:20;26.52;;;5.80;;
21202;SDS011;10759;51.982;9.232;2024-01-25T06:50:49;20.15;;;5.70;;
21202;SDS011;10759;51.982;9.232;2024-01-25T06:53:18;22.50;;;5.50;;
21202;SDS011;10759;51.982;9.232;2024-01-25T06:55:46;21.73;;;6.28;;
21202;SDS011;10759;51.982;9.232;2024-01-25T06:58:14;19.25;;;4.70;;
21202;SDS011;10759;51.982;9.232;2024-01-25T07:00:43;21.13;;;5.28;;
21202;SDS011;10759;51.982;9.232;2024-01-25T07:03:13;21.73;;;4.70;;
21202;SDS011;10759;51.982;9.232;2024-01-25T07:05:44;23.92;;;5.28;;
21202;SDS011;10759;51.982;9.232;2024-01-25T07:08:12;16.08;;;5.28;;
21202;SDS011;10759;51.982;9.232;2024-01-25T07:10:41;21.70;;;5.75;;
21202;SDS011;10759;51.982;9.232;2024-01-25T07:13:09;21.88;;;5.80;;
21202;SDS011;10759;51.982;9.232;2024-01-25T07:15:37;22.70;;;4.90;;
21202;SDS011;10759;51.982;9.232;2024-01-25T07:18:05;22.05;;;5.70;;
21202;SDS011;10759;51.982;9.232;2024-01-25T07:20:33;23.17;;;6.28;;
21202;SDS011;10759;51.982;9.232;2024-01-25T07:23:03;26.17;;;6.10;;
21202;SDS011;10759;51.982;9.232;2024-01-25T07:25:31;28.75;;;6.78;;
21202;SDS011;10759;51.982;9.232;2024-01-25T07:27:59;22.48;;;5.78;;
21202;SDS011;10759;51.982;9.232;2024-01-25T07:30:27;24.33;;;6.00;;
21202;SDS011;10759;51.982;9.232;2024-01-25T07:32:55;24.80;;;6.63;;
21202;SDS011;10759;51.982;9.232;2024-01-25T07:35:23;23.65;;;6.03;;
21202;SDS011;10759;51.982;9.232;2024-01-25T07:37:52;22.52;;;6.68;;
21202;SDS011;10759;51.982;9.232;2024-01-25T07:40:21;16.92;;;5.90;;
21202;SDS011;10759;51.982;9.232;2024-01-25T07:42:50;27.48;;;5.78;;
21202;SDS011;10759;51.982;9.232;2024-01-25T07:45:18;26.45;;;7.20;;
21202;SDS011;10759;51.982;9.232;2024-01-25T07:47:46;28.30;;;7.28;;
21202;SDS011;10759;51.982;9.232;2024-01-25T07:50:19;22.38;;;6.45;;
21202;SDS011;10759;51.982;9.232;2024-01-25T07:52:47;32.85;;;7.68;;
21202;SDS011;10759;51.982;9.232;2024-01-25T07:55:16;30.38;;;7.13;;
21202;SDS011;10759;51.982;9.232;2024-01-25T07:57:46;21.90;;;6.38;;
21202;SDS011;10759;51.982;9.232;2024-01-25T08:00:14;25.57;;;5.97;;
21202;SDS011;10759;51.982;9.232;2024-01-25T08:02:42;24.38;;;6.10;;
21202;SDS011;10759;51.982;9.232;2024-01-25T08:05:11;22.55;;;7.25;;
21202;SDS011;10759;51.982;9.232;2024-01-25T08:07:39;28.45;;;7.47;;
21202;SDS011;10759;51.982;9.232;2024-01-25T08:10:08;23.08;;;6.47;;
21202;SDS011;10759;51.982;9.232;2024-01-25T08:12:36;24.83;;;5.82;;
21202;SDS011;10759;51.982;9.232;2024-01-25T08:15:14;19.98;;;7.00;;
21202;SDS011;10759;51.982;9.232;2024-01-25T08:17:42;28.80;;;6.40;;
21202;SDS011;10759;51.982;9.232;2024-01-25T08:20:11;25.00;;;6.82;;
21202;SDS011;10759;51.982;9.232;2024-01-25T08:22:40;27.10;;;6.43;;
21202;SDS011;10759;51.982;9.232;2024-01-25T08:25:08;32.30;;;6.95;;
21202;SDS011;10759;51.982;9.232;2024-01-25T08:27:38;25.88;;;7.10;;
21202;SDS011;10759;51.982;9.232;2024-01-25T08:30:06;32.45;;;7.18;;
21202;SDS011;10759;51.982;9.232;2024-01-25T08:32:36;22.98;;;7.03;;
21202;SDS011;10759;51.982;9.232;2024-01-25T08:35:05;19.95;;;6.60;;
21202;SDS011;10759;51.982;9.232;2024-01-25T08:37:33;25.60;;;6.53;;
21202;SDS011;10759;51.982;9.232;2024-01-25T08:40:03;30.23;;;6.95;;
21202;SDS011;10759;51.982;9.232;2024-01-25T08:42:32;21.00;;;6.88;;
21202;SDS011;10759;51.982;9.232;2024-01-25T08:45:01;26.58;;;7.00;;
21202;SDS011;10759;51.982;9.232;2024-01-25T08:50:00;28.10;;;7.30;;
21202;SDS011;10759;51.982;9.232;2024-01-25T08:52:30;30.13;;;7.05;;
21202;SDS011;10759;51.982;9.232;2024-01-25T08:54:59;18.05;;;6.78;;
21202;SDS011;10759;51.982;9.232;2024-01-25T08:57:27;24.52;;;6.65;;
21202;SDS011;10759;51.982;9.232;2024-01-25T08:59:55;34.40;;;8.30;;
21202;SDS011;10759;51.982;9.232;2024-01-25T09:02:24;25.90;;;7.32;;
21202;SDS011;10759;51.982;9.232;2024-01-25T09:04:54;28.50;;;8.68;;
21202;SDS011;10759;51.982;9.232;2024-01-25T09:07:24;24.67;;;7.22;;
21202;SDS011;10759;51.982;9.232;2024-01-25T09:09:52;18.30;;;6.55;;
21202;SDS011;10759;51.982;9.232;2024-01-25T09:12:20;31.30;;;7.85;;
21202;SDS011;10759;51.982;9.232;2024-01-25T09:14:48;25.08;;;7.18;;
21202;SDS011;10759;51.982;9.232;2024-01-25T09:17:16;26.27;;;7.95;;
21202;SDS011;10759;51.982;9.232;2024-01-25T09:19:48;21.83;;;6.78;;
21202;SDS011;10759;51.982;9.232;2024-01-25T09:22:17;22.20;;;7.68;;
21202;SDS011;10759;51.982;9.232;2024-01-25T09:24:48;23.60;;;6.32;;
21202;SDS011;10759;51.982;9.232;2024-01-25T09:27:16;29.53;;;7.47;;
21202;SDS011;10759;51.982;9.232;2024-01-25T09:29:44;29.95;;;8.90;;
21202;SDS011;10759;51.982;9.232;2024-01-25T09:32:12;21.83;;;6.70;;
21202;SDS011;10759;51.982;9.232;2024-01-25T09:34:40;30.92;;;8.18;;
21202;SDS011;10759;51.982;9.232;2024-01-25T09:37:08;26.40;;;7.47;;
21202;SDS011;10759;51.982;9.232;2024-01-25T09:39:37;17.02;;;5.97;;
21202;SDS011;10759;51.982;9.232;2024-01-25T09:42:07;27.63;;;7.32;;
21202;SDS011;10759;51.982;9.232;2024-01-25T09:44:35;24.88;;;6.50;;
21202;SDS011;10759;51.982;9.232;2024-01-25T09:47:05;21.20;;;6.05;;
21202;SDS011;10759;51.982;9.232;2024-01-25T09:49:33;34.92;;;7.75;;
21202;SDS011;10759;51.982;9.232;2024-01-25T09:52:02;24.00;;;7.15;;
21202;SDS011;10759;51.982;9.232;2024-01-25T09:54:32;24.33;;;6.38;;
21202;SDS011;10759;51.982;9.232;2024-01-25T09:57:08;20.20;;;6.80;;
21202;SDS011;10759;51.982;9.232;2024-01-25T09:59:43;26.25;;;7.50;;
21202;SDS011;10759;51.982;9.232;2024-01-25T10:02:11;28.88;;;7.10;;
21202;SDS011;10759;51.982;9.232;2024-01-25T10:04:40;24.50;;;6.03;;
21202;SDS011;10759;51.982;9.232;2024-01-25T10:07:08;24.92;;;7.63;;
21202;SDS011;10759;51.982;9.232;2024-01-25T10:09:40;24.85;;;7.07;;
21202;SDS011;10759;51.982;9.232;2024-01-25T10:12:10;23.90;;;7.22;;
21202;SDS011;10759;51.982;9.232;2024-01-25T10:14:44;21.42;;;6.63;;
21202;SDS011;10759;51.982;9.232;2024-01-25T10:17:12;22.40;;;6.15;;
21202;SDS011;10759;51.982;9.232;2024-01-25T10:19:42;25.92;;;8.13;;
21202;SDS011;10759;51.982;9.232;2024-01-25T10:22:12;20.35;;;6.18;;
21202;SDS011;10759;51.982;9.232;2024-01-25T10:27:11;29.42;;;6.93;;
21202;SDS011;10759;51.982;9.232;2024-01-25T10:29:42;20.80;;;6.53;;
21202;SDS011;10759;51.982;9.232;2024-01-25T10:32:10;23.70;;;7.13;;
21202;SDS011;10759;51.982;9.232;2024-01-25T10:34:39;23.65;;;7.38;;
21202;SDS011;10759;51.982;9.232;2024-01-25T10:39:41;26.42;;;5.82;;
21202;SDS011;10759;51.982;9.232;2024-01-25T10:42:09;20.20;;;6.50;;
21202;SDS011;10759;51.982;9.232;2024-01-25T10:44:39;21.98;;;6.90;;
21202;SDS011;10759;51.982;9.232;2024-01-25T10:47:07;28.33;;;6.65;;
21202;SDS011;10759;51.982;9.232;2024-01-25T10:49:35;20.17;;;7.25;;
21202;SDS011;10759;51.982;9.232;2024-01-25T10:52:05;22.48;;;7.53;;
21202;SDS011;10759;51.982;9.232;2024-01-25T10:54:33;21.27;;;6.10;;
21202;SDS011;10759;51.982;9.232;2024-01-25T10:57:02;24.58;;;7.20;;
21202;SDS011;10759;51.982;9.232;2024-01-25T10:59:32;24.98;;;7.60;;
21202;SDS011;10759;51.982;9.232;2024-01-25T11:02:02;21.92;;;5.57;;
21202;SDS011;10759;51.982;9.232;2024-01-25T11:04:32;25.70;;;7.85;;
21202;SDS011;10759;51.982;9.232;2024-01-25T11:07:04;15.35;;;6.00;;
21202;SDS011;10759;51.982;9.232;2024-01-25T11:09:35;26.30;;;7.55;;
21202;SDS011;10759;51.982;9.232;2024-01-25T11:12:10;23.30;;;6.93;;
21202;SDS011;10759;51.982;9.232;2024-01-25T11:14:39;20.17;;;6.40;;
21202;SDS011;10759;51.982;9.232;2024-01-25T11:17:19;23.40;;;6.60;;
21202;SDS011;10759;51.982;9.232;2024-01-25T11:19:48;25.83;;;6.63;;
21202;SDS011;10759;51.982;9.232;2024-01-25T11:22:17;20.90;;;6.68;;
21202;SDS011;10759;51.982;9.232;2024-01-25T11:24:46;16.88;;;6.20;;
21202;SDS011;10759;51.982;9.232;2024-01-25T11:27:15;20.98;;;5.95;;
21202;SDS011;10759;51.982;9.232;2024-01-25T11:29:43;21.48;;;6.22;;
21202;SDS011;10759;51.982;9.232;2024-01-25T11:32:11;27.90;;;6.55;;
21202;SDS011;10759;51.982;9.232;2024-01-25T11:34:41;21.02;;;5.70;;
21202;SDS011;10759;51.982;9.232;2024-01-25T11:39:38;24.88;;;6.38;;
21202;SDS011;10759;51.982;9.232;2024-01-25T11:42:05;13.52;;;5.45;;
21202;SDS011;10759;51.982;9.232;2024-01-25T11:44:34;23.08;;;6.13;;
21202;SDS011;10759;51.982;9.232;2024-01-25T11:47:03;19.38;;;6.35;;
21202;SDS011;10759;51.982;9.232;2024-01-25T11:49:31;18.83;;;6.35;;
21202;SDS011;10759;51.982;9.232;2024-01-25T11:52:01;23.95;;;6.18;;
21202;SDS011;10759;51.982;9.232;2024-01-25T11:54:30;20.02;;;6.35;;
21202;SDS011;10759;51.982;9.232;2024-01-25T11:56:58;24.70;;;6.93;;
21202;SDS011;10759;51.982;9.232;2024-01-25T11:59:27;22.10;;;6.35;;
21202;SDS011;10759;51.982;9.232;2024-01-25T12:01:55;16.30;;;6.85;;
21202;SDS011;10759;51.982;9.232;2024-01-25T12:04:24;27.75;;;6.82;;
21202;SDS011;10759;51.982;9.232;2024-01-25T12:06:52;17.90;;;6.10;;
21202;SDS011;10759;51.982;9.232;2024-01-25T12:09:22;20.83;;;6.10;;
21202;SDS011;10759;51.982;9.232;2024-01-25T12:11:50;26.85;;;6.43;;
21202;SDS011;10759;51.982;9.232;2024-01-25T12:14:18;21.17;;;6.85;;
21202;SDS011;10759;51.982;9.232;2024-01-25T12:16:46;17.42;;;7.03;;
21202;SDS011;10759;51.982;9.232;2024-01-25T12:19:14;20.70;;;7.88;;
21202;SDS011;10759;51.982;9.232;2024-01-25T12:21:45;23.98;;;6.15;;
21202;SDS011;10759;51.982;9.232;2024-01-25T12:24:13;24.15;;;6.95;;
21202;SDS011;10759;51.982;9.232;2024-01-25T12:26:43;23.50;;;6.60;;
21202;SDS011;10759;51.982;9.232;2024-01-25T12:29:11;29.25;;;6.40;;
21202;SDS011;10759;51.982;9.232;2024-01-25T12:31:39;20.48;;;6.20;;
21202;SDS011;10759;51.982;9.232;2024-01-25T12:34:12;22.85;;;6.38;;
21202;SDS011;10759;51.982;9.232;2024-01-25T12:36:42;16.38;;;5.90;;
21202;SDS011;10759;51.982;9.232;2024-01-25T12:39:10;19.98;;;7.03;;
21202;SDS011;10759;51.982;9.232;2024-01-25T12:41:46;20.48;;;5.35;;
21202;SDS011;10759;51.982;9.232;2024-01-25T12:44:15;22.60;;;5.47;;
21202;SDS011;10759;51.982;9.232;2024-01-25T12:46:43;19.50;;;6.15;;
21202;SDS011;10759;51.982;9.232;2024-01-25T12:49:12;20.60;;;4.97;;
21202;SDS011;10759;51.982;9.232;2024-01-25T12:51:40;21.58;;;5.65;;
21202;SDS011;10759;51.982;9.232;2024-01-25T12:54:08;12.70;;;3.90;;
21202;SDS011;10759;51.982;9.232;2024-01-25T12:56:37;18.55;;;5.13;;
21202;SDS011;10759;51.982;9.232;2024-01-25T12:59:07;16.25;;;5.57;;
21202;SDS011;10759;51.982;9.232;2024-01-25T13:01:35;20.10;;;5.60;;
21202;SDS011;10759;51.982;9.232;2024-01-25T13:04:03;22.42;;;5.50;;
21202;SDS011;10759;51.982;9.232;2024-01-25T13:06:32;26.02;;;6.15;;
21202;SDS011;10759;51.982;9.232;2024-01-25T13:09:00;17.02;;;5.85;;
21202;SDS011;10759;51.982;9.232;2024-01-25T13:11:30;35.22;;;6.70;;
21202;SDS011;10759;51.982;9.232;2024-01-25T13:13:58;19.80;;;5.78;;
21202;SDS011;10759;51.982;9.232;2024-01-25T13:16:27;23.70;;;5.97;;
21202;SDS011;10759;51.982;9.232;2024-01-25T13:18:55;17.13;;;4.93;;
21202;SDS011;10759;51.982;9.232;2024-01-25T13:21:23;15.60;;;4.63;;
21202;SDS011;10759;51.982;9.232;2024-01-25T13:23:51;13.45;;;5.85;;
21202;SDS011;10759;51.982;9.232;2024-01-25T13:26:19;22.88;;;6.15;;
21202;SDS011;10759;51.982;9.232;2024-01-25T13:28:47;19.05;;;5.60;;
21202;SDS011;10759;51.982;9.232;2024-01-25T13:31:15;19.75;;;5.32;;
21202;SDS011;10759;51.982;9.232;2024-01-25T13:33:44;15.25;;;5.72;;
21202;SDS011;10759;51.982;9.232;2024-01-25T13:36:14;22.92;;;6.60;;
21202;SDS011;10759;51.982;9.232;2024-01-25T13:38:42;22.10;;;6.22;;
21202;SDS011;10759;51.982;9.232;2024-01-25T13:41:10;20.65;;;6.97;;
21202;SDS011;10759;51.982;9.232;2024-01-25T13:43:38;20.85;;;7.43;;
21202;SDS011;10759;51.982;9.232;2024-01-25T13:46:06;24.52;;;8.00;;
21202;SDS011;10759;51.982;9.232;2024-01-25T13:48:34;23.30;;;7.00;;
21202;SDS011;10759;51.982;9.232;2024-01-25T13:51:04;22.58;;;6.82;;
21202;SDS011;10759;51.982;9.232;2024-01-25T13:53:32;21.77;;;7.22;;
21202;SDS011;10759;51.982;9.232;2024-01-25T13:56:00;16.67;;;5.85;;
21202;SDS011;10759;51.982;9.232;2024-01-25T13:58:28;17.85;;;6.28;;
21202;SDS011;10759;51.982;9.232;2024-01-25T14:00:59;18.13;;;6.88;;
21202;SDS011;10759;51.982;9.232;2024-01-25T14:03:27;13.05;;;6.15;;
21202;SDS011;10759;51.982;9.232;2024-01-25T14:05:56;19.05;;;7.22;;
21202;SDS011;10759;51.982;9.232;2024-01-25T14:08:25;18.13;;;6.97;;
21202;SDS011;10759;51.982;9.232;2024-01-25T14:10:53;14.30;;;6.72;;
21202;SDS011;10759;51.982;9.232;2024-01-25T14:13:22;23.05;;;7.10;;
21202;SDS011;10759;51.982;9.232;2024-01-25T14:15:50;20.20;;;8.38;;
21202;SDS011;10759;51.982;9.232;2024-01-25T14:18:18;21.85;;;8.00;;
21202;SDS011;10759;51.982;9.232;2024-01-25T14:20:46;20.27;;;7.65;;
21202;SDS011;10759;51.982;9.232;2024-01-25T14:23:14;23.00;;;9.18;;
21202;SDS011;10759;51.982;9.232;2024-01-25T14:25:43;17.90;;;6.78;;
21202;SDS011;10759;51.982;9.232;2024-01-25T14:28:12;19.67;;;8.55;;
21202;SDS011;10759;51.982;9.232;2024-01-25T14:30:40;20.48;;;7.78;;
21202;SDS011;10759;51.982;9.232;2024-01-25T14:33:09;21.20;;;8.30;;
21202;SDS011;10759;51.982;9.232;2024-01-25T14:35:37;22.35;;;9.23;;
21202;SDS011;10759;51.982;9.232;2024-01-25T14:38:05;19.30;;;8.60;;
21202;SDS011;10759;51.982;9.232;2024-01-25T14:40:33;24.58;;;9.85;;
21202;SDS011;10759;51.982;9.232;2024-01-25T14:43:23;20.75;;;10.13;;
21202;SDS011;10759;51.982;9.232;2024-01-25T14:45:51;21.95;;;12.23;;
21202;SDS011;10759;51.982;9.232;2024-01-25T14:48:20;27.85;;;12.40;;
21202;SDS011;10759;51.982;9.232;2024-01-25T14:50:48;31.00;;;11.50;;
21202;SDS011;10759;51.982;9.232;2024-01-25T14:53:16;25.00;;;11.65;;
21202;SDS011;10759;51.982;9.232;2024-01-25T14:55:45;22.63;;;12.63;;
21202;SDS011;10759;51.982;9.232;2024-01-25T14:58:13;27.40;;;11.70;;
21202;SDS011;10759;51.982;9.232;2024-01-25T15:00:50;28.15;;;13.32;;
21202;SDS011;10759;51.982;9.232;2024-01-25T15:05:47;24.17;;;12.43;;
21202;SDS011;10759;51.982;9.232;2024-01-25T15:08:15;26.27;;;12.13;;
21202;SDS011;10759;51.982;9.232;2024-01-25T15:10:43;28.23;;;12.38;;
21202;SDS011;10759;51.982;9.232;2024-01-25T15:13:11;34.28;;;15.43;;
21202;SDS011;10759;51.982;9.232;2024-01-25T15:15:39;30.48;;;13.70;;
21202;SDS011;10759;51.982;9.232;2024-01-25T15:18:13;20.05;;;13.20;;
21202;SDS011;10759;51.982;9.232;2024-01-25T15:20:44;26.83;;;13.73;;
21202;SDS011;10759;51.982;9.232;2024-01-25T15:23:12;32.38;;;13.32;;
21202;SDS011;10759;51.982;9.232;2024-01-25T15:25:40;25.42;;;11.52;;
21202;SDS011;10759;51.982;9.232;2024-01-25T15:28:08;32.03;;;13.25;;
21202;SDS011;10759;51.982;9.232;2024-01-25T15:30:36;26.70;;;13.35;;
21202;SDS011;10759;51.982;9.232;2024-01-25T15:33:04;32.70;;;13.02;;
21202;SDS011;10759;51.982;9.232;2024-01-25T15:35:37;31.88;;;13.55;;
21202;SDS011;10759;51.982;9.232;2024-01-25T15:38:06;26.42;;;11.98;;
21202;SDS011;10759;51.982;9.232;2024-01-25T15:40:34;26.05;;;11.80;;
21202;SDS011;10759;51.982;9.232;2024-01-25T15:43:02;29.30;;;12.80;;
21202;SDS011;10759;51.982;9.232;2024-01-25T15:45:31;22.50;;;11.70;;
21202;SDS011;10759;51.982;9.232;2024-01-25T15:47:59;28.98;;;12.07;;
21202;SDS011;10759;51.982;9.232;2024-01-25T15:50:27;27.50;;;12.50;;
21202;SDS011;10759;51.982;9.232;2024-01-25T15:52:57;23.05;;;11.75;;
21202;SDS011;10759;51.982;9.232;2024-01-25T15:55:25;28.38;;;13.05;;
21202;SDS011;10759;51.982;9.232;2024-01-25T15:57:53;35.90;;;16.55;;
21202;SDS011;10759;51.982;9.232;2024-01-25T16:00:21;30.27;;;15.90;;
21202;SDS011;10759;51.982;9.232;2024-01-25T16:02:49;34.65;;;15.93;;
21202;SDS011;10759;51.982;9.232;2024-01-25T16:05:17;32.25;;;16.17;;
21202;SDS011;10759;51.982;9.232;2024-01-25T16:07:45;34.80;;;16.00;;
21202;SDS011;10759;51.982;9.232;2024-01-25T16:10:17;28.33;;;14.63;;
21202;SDS011;10759;51.982;9.232;2024-01-25T16:12:47;30.83;;;13.18;;
21202;SDS011;10759;51.982;9.232;2024-01-25T16:15:17;25.45;;;13.07;;
21202;SDS011;10759;51.982;9.232;2024-01-25T16:17:45;27.92;;;13.65;;
21202;SDS011;10759;51.982;9.232;2024-01-25T16:20:13;24.50;;;13.20;;
21202;SDS011;10759;51.982;9.232;2024-01-25T16:22:42;35.85;;;20.92;;
21202;SDS011;10759;51.982;9.232;2024-01-25T16:25:12;30.27;;;17.63;;
21202;SDS011;10759;51.982;9.232;2024-01-25T16:27:41;28.73;;;15.38;;
21202;SDS011;10759;51.982;9.232;2024-01-25T16:30:10;32.75;;;21.75;;
21202;SDS011;10759;51.982;9.232;2024-01-25T16:32:41;37.08;;;18.13;;
21202;SDS011;10759;51.982;9.232;2024-01-25T16:35:09;31.38;;;18.42;;
21202;SDS011;10759;51.982;9.232;2024-01-25T16:37:37;57.67;;;35.58;;
21202;SDS011;10759;51.982;9.232;2024-01-25T16:40:05;75.03;;;47.42;;
21202;SDS011;10759;51.982;9.232;2024-01-25T16:42:34;122.37;;;75.30;;
21202;SDS011;10759;51.982;9.232;2024-01-25T16:45:04;365.20;;;249.75;;
21202;SDS011;10759;51.982;9.232;2024-01-25T16:50:00;302.63;;;189.93;;
21202;SDS011;10759;51.982;9.232;2024-01-25T16:52:28;285.45;;;170.60;;
21202;SDS011;10759;51.982;9.232;2024-01-25T16:54:56;212.02;;;120.10;;
21202;SDS011;10759;51.982;9.232;2024-01-25T16:57:25;501.65;;;317.88;;
21202;SDS011;10759;51.982;9.232;2024-01-25T16:59:53;301.17;;;186.07;;
21202;SDS011;10759;51.982;9.232;2024-01-25T17:02:23;279.50;;;177.98;;
21202;SDS011;10759;51.982;9.232;2024-01-25T17:04:51;163.47;;;98.73;;
21202;SDS011;10759;51.982;9.232;2024-01-25T17:07:19;142.35;;;92.03;;
21202;SDS011;10759;51.982;9.232;2024-01-25T17:09:47;115.72;;;72.35;;
21202;SDS011;10759;51.982;9.232;2024-01-25T17:12:15;101.88;;;60.75;;
21202;SDS011;10759;51.982;9.232;2024-01-25T17:14:44;81.97;;;54.20;;
21202;SDS011;10759;51.982;9.232;2024-01-25T17:17:12;56.65;;;34.33;;
21202;SDS011;10759;51.982;9.232;2024-01-25T17:19:41;37.55;;;24.25;;
21202;SDS011;10759;51.982;9.232;2024-01-25T17:22:09;66.38;;;35.70;;
21202;SDS011;10759;51.982;9.232;2024-01-25T17:24:37;46.53;;;28.00;;
21202;SDS011;10759;51.982;9.232;2024-01-25T17:27:05;49.08;;;28.35;;
21202;SDS011;10759;51.982;9.232;2024-01-25T17:29:33;46.33;;;27.70;;
21202;SDS011;10759;51.982;9.232;2024-01-25T17:32:01;39.53;;;23.05;;
21202;SDS011;10759;51.982;9.232;2024-01-25T17:34:29;41.10;;;24.58;;
21202;SDS011;10759;51.982;9.232;2024-01-25T17:36:59;40.80;;;23.70;;
21202;SDS011;10759;51.982;9.232;2024-01-25T17:39:27;31.87;;;20.27;;
21202;SDS011;10759;51.982;9.232;2024-01-25T17:41:58;35.13;;;18.85;;
21202;SDS011;10759;51.982;9.232;2024-01-25T17:44:26;29.63;;;18.30;;
21202;SDS011;10759;51.982;9.232;2024-01-25T17:46:54;32.30;;;18.52;;
21202;SDS011;10759;51.982;9.232;2024-01-25T17:49:22;41.47;;;23.30;;
21202;SDS011;10759;51.982;9.232;2024-01-25T17:51:50;36.45;;;22.00;;
21202;SDS011;10759;51.982;9.232;2024-01-25T17:54:20;32.28;;;20.92;;
21202;SDS011;10759;51.982;9.232;2024-01-25T17:56:48;31.13;;;18.20;;
21202;SDS011;10759;51.982;9.232;2024-01-25T17:59:16;39.50;;;18.95;;
21202;SDS011;10759;51.982;9.232;2024-01-25T18:01:44;29.85;;;17.30;;
21202;SDS011;10759;51.982;9.232;2024-01-25T18:04:12;26.33;;;15.35;;
21202;SDS011;10759;51.982;9.232;2024-01-25T18:06:40;31.95;;;14.82;;
21202;SDS011;10759;51.982;9.232;2024-01-25T18:09:08;29.35;;;14.98;;
21202;SDS011;10759;51.982;9.232;2024-01-25T18:11:38;40.65;;;20.30;;
21202;SDS011;10759;51.982;9.232;2024-01-25T18:14:06;38.28;;;21.25;;
21202;SDS011;10759;51.982;9.232;2024-01-25T18:16:34;37.97;;;19.58;;
21202;SDS011;10759;51.982;9.232;2024-01-25T18:19:05;35.83;;;16.17;;
21202;SDS011;10759;51.982;9.232;2024-01-25T18:21:33;34.97;;;18.50;;
21202;SDS011;10759;51.982;9.232;2024-01-25T18:24:04;35.63;;;20.30;;
21202;SDS011;10759;51.982;9.232;2024-01-25T18:26:33;29.58;;;14.68;;
21202;SDS011;10759;51.982;9.232;2024-01-25T18:29:02;30.23;;;13.68;;
21202;SDS011;10759;51.982;9.232;2024-01-25T18:31:30;33.77;;;14.33;;
21202;SDS011;10759;51.982;9.232;2024-01-25T18:33:59;31.90;;;13.95;;
21202;SDS011;10759;51.982;9.232;2024-01-25T18:36:28;25.70;;;12.63;;
21202;SDS011;10759;51.982;9.232;2024-01-25T18:38:56;28.83;;;12.55;;
21202;SDS011;10759;51.982;9.232;2024-01-25T18:41:25;43.08;;;12.10;;
21202;SDS011;10759;51.982;9.232;2024-01-25T18:43:53;25.20;;;12.90;;
21202;SDS011;10759;51.982;9.232;2024-01-25T18:46:25;29.70;;;14.45;;
21202;SDS011;10759;51.982;9.232;2024-01-25T18:48:53;36.60;;;15.63;;
21202;SDS011;10759;51.982;9.232;2024-01-25T18:51:21;31.52;;;13.43;;
21202;SDS011;10759;51.982;9.232;2024-01-25T18:53:50;32.70;;;15.85;;
21202;SDS011;10759;51.982;9.232;2024-01-25T18:56:18;36.42;;;19.00;;
21202;SDS011;10759;51.982;9.232;2024-01-25T18:58:53;49.55;;;25.40;;
21202;SDS011;10759;51.982;9.232;2024-01-25T19:01:22;41.28;;;20.88;;
21202;SDS011;10759;51.982;9.232;2024-01-25T19:03:52;32.47;;;13.75;;
21202;SDS011;10759;51.982;9.232;2024-01-25T19:06:21;30.38;;;13.45;;
21202;SDS011;10759;51.982;9.232;2024-01-25T19:08:53;32.58;;;15.40;;
21202;SDS011;10759;51.982;9.232;2024-01-25T19:11:21;27.83;;;13.43;;
21202;SDS011;10759;51.982;9.232;2024-01-25T19:13:50;26.05;;;12.60;;
21202;SDS011;10759;51.982;9.232;2024-01-25T19:16:18;31.98;;;11.82;;
21202;SDS011;10759;51.982;9.232;2024-01-25T19:18:48;26.02;;;13.95;;
21202;SDS011;10759;51.982;9.232;2024-01-25T19:23:47;23.23;;;11.70;;
21202;SDS011;10759;51.982;9.232;2024-01-25T19:26:15;29.90;;;14.23;;
21202;SDS011;10759;51.982;9.232;2024-01-25T19:28:43;28.02;;;15.10;;
21202;SDS011;10759;51.982;9.232;2024-01-25T19:31:11;27.15;;;14.38;;
21202;SDS011;10759;51.982;9.232;2024-01-25T19:33:43;28.52;;;14.63;;
21202;SDS011;10759;51.982;9.232;2024-01-25T19:36:12;32.87;;;16.63;;
21202;SDS011;10759;51.982;9.232;2024-01-25T19:38:42;25.02;;;15.48;;
21202;SDS011;10759;51.982;9.232;2024-01-25T19:41:10;29.55;;;16.58;;
21202;SDS011;10759;51.982;9.232;2024-01-25T19:43:38;25.70;;;14.45;;
21202;SDS011;10759;51.982;9.232;2024-01-25T19:46:06;24.63;;;15.65;;
21202;SDS011;10759;51.982;9.232;2024-01-25T19:48:35;28.33;;;14.38;;
21202;SDS011;10759;51.982;9.232;2024-01-25T19:51:04;24.73;;;14.35;;
21202;SDS011;10759;51.982;9.232;2024-01-25T19:53:32;38.08;;;19.83;;
21202;SDS011;10759;51.982;9.232;2024-01-25T19:56:01;27.58;;;15.75;;
21202;SDS011;10759;51.982;9.232;2024-01-25T19:58:30;27.58;;;12.50;;
21202;SDS011;10759;51.982;9.232;2024-01-25T20:00:59;20.92;;;13.77;;
21202;SDS011;10759;51.982;9.232;2024-01-25T20:03:28;28.88;;;14.23;;
21202;SDS011;10759;51.982;9.232;2024-01-25T20:05:57;21.73;;;12.73;;
21202;SDS011;10759;51.982;9.232;2024-01-25T20:08:26;23.75;;;13.25;;
21202;SDS011;10759;51.982;9.232;2024-01-25T20:10:54;21.90;;;12.48;;